Abbott Park, IL

12:20 PM CDT on August 23, 2014 (GMT -0500)
Prairie Ridge Farm | Change Station
CLOSE
Current Station
Personal Weather Station
Location: Green Oaks, IL
Elevation: 698 ft
Nearby Weather Stations

Elev 698 ft 42.32 °N, 87.92 °W | Updated 3 seconds ago

Scattered Clouds
Scattered Clouds
81.9 °F
Feels Like 89 °F
N
2.0
Wind Variable Wind from East
Gusts 5.0 mph

Today
High -- | Low -- °F
--% Chance of Precip.
Yesterday
High -- | Low -- °F
Precip. -- in
6:07 AM 7:40 PM
Waning Crescent, 3% visible
Pressure 29.98 in
Visibility 10.0 miles
Clouds Scattered Clouds 1600 ft
Heat Index 89 °F
Dew Point 75 °F
Humidity 81%
Rainfall 0.00 in
Snow Depth Not available.
UV 7 out of 12
Pollen 7.20 out of 12
Ozone Good
PM2.5 Moderate
Flu Activity Not available.
METAR KUGN 231652Z 07005KT 10SM SCT016 27/22 A3001 RMK AO2 SLP150 T02670217

More Conditions Fewer Conditions

Pressure 29.98 in
Visibility 10.0 miles
Clouds Scattered Clouds 1600 ft
Heat Index 89 °F
Dew Point 75 °F
Humidity 81%
Rainfall 0.00 in
Snow Depth Not available.
UV 7 out of 12
Pollen 7.20 out of 12
Ozone Good
PM2.5 Moderate
Flu Activity Not available.
METAR KUGN 231652Z 07005KT 10SM SCT016 27/22 A3001 RMK AO2 SLP150 T02670217

More Conditions Fewer Conditions

10-Day Weather Forecast

Almanac

Astronomy

Aug. 23, 2014 Rise Set
Actual Time 6:07 AM CDT 7:40 PM CDT
Civil Twilight 5:37 AM CDT 8:09 PM CDT
Nautical Twilight 5:01 AM CDT 8:45 PM CDT
Astronomical Twilight 4:23 AM CDT 9:23 PM CDT
Moon 4:22 AM CDT 6:24 PM CDT
Length of Visible Light 14h 32m
Length of Day
13h 32m
Tomorrow will be 2m 39s shorter.
Waning Crescent, 3% of the Moon is Illuminated
Today
Waning Crescent
Aug 25
New
Sep 2
First Quarter
Sep 8
Full
Sep 15
Last Quarter

Today's Extremes

State Highs State Lows

Community

WunderPhotos

Upload Photos

1,746,534 photos uploaded!

WunderBlogs® & News

By Dr. Jeff Masters
Director of Meteorology, Weather Underground
By Kari Strenfel
Meteorologist, Weather Underground
By Christopher C. Burt
Weather Historian, Weather Underground
August 23, 2014
August 23, 2014
August 23, 2014

Nearby

Air Quality

  Air Quality AQ Index Pollutant
Yesterday Moderate
OZONE
Yesterday Moderate
PM2.5
Current Moderate
PM2.5
Current Good
OZONE
Saturday Moderate
OZONE
Saturday Moderate
PM2.5
Sunday Moderate
OZONE
Sunday Moderate
PM2.5
Monday Moderate
OZONE
Monday Moderate
PM2.5

Snow Depth

Station Depth Elevation
No new snow has been reported.

Earthquake Activity

City Distance Mag. Time & Date
No recent earthquake activity has been reported nearby.
Minimum magnitude displayed is 2.5.

Coastal Water Temperatures

Place Temperature
No Stations Reporting

Nearby Weather Stations